sensor_id;sensor_type;location;lat;lon;timestamp;temperature;humidity
10042;DHT22;5061;49.068;12.058;2024-03-02T00:00:55;5.70;99.90
10042;DHT22;5061;49.068;12.058;2024-03-02T00:04:16;5.70;99.90
10042;DHT22;5061;49.068;12.058;2024-03-02T00:07:41;5.70;99.90
10042;DHT22;5061;49.068;12.058;2024-03-02T00:11:02;5.70;99.90
10042;DHT22;5061;49.068;12.058;2024-03-02T00:14:23;5.70;99.90
10042;DHT22;5061;49.068;12.058;2024-03-02T00:17:45;5.70;99.90
10042;DHT22;5061;49.068;12.058;2024-03-02T00:21:06;5.70;99.90
10042;DHT22;5061;49.068;12.058;2024-03-02T00:24:33;5.70;99.90
10042;DHT22;5061;49.068;12.058;2024-03-02T00:27:54;5.70;99.90
10042;DHT22;5061;49.068;12.058;2024-03-02T00:31:15;5.70;99.90
10042;DHT22;5061;49.068;12.058;2024-03-02T00:34:38;5.70;99.90
10042;DHT22;5061;49.068;12.058;2024-03-02T00:38:04;5.70;99.90
10042;DHT22;5061;49.068;12.058;2024-03-02T00:41:27;5.70;99.90
10042;DHT22;5061;49.068;12.058;2024-03-02T00:44:48;5.70;99.90
10042;DHT22;5061;49.068;12.058;2024-03-02T00:48:09;5.70;99.90
10042;DHT22;5061;49.068;12.058;2024-03-02T00:51:31;5.70;99.90
10042;DHT22;5061;49.068;12.058;2024-03-02T00:54:57;5.70;99.90
10042;DHT22;5061;49.068;12.058;2024-03-02T00:58:17;5.70;99.90
10042;DHT22;5061;49.068;12.058;2024-03-02T01:01:38;5.70;99.90
10042;DHT22;5061;49.068;12.058;2024-03-02T01:04:59;5.70;99.90
10042;DHT22;5061;49.068;12.058;2024-03-02T01:08:19;5.70;99.90
10042;DHT22;5061;49.068;12.058;2024-03-02T01:11:40;5.70;99.90
10042;DHT22;5061;49.068;12.058;2024-03-02T01:15:01;5.70;99.90
10042;DHT22;5061;49.068;12.058;2024-03-02T01:18:21;5.70;99.90
10042;DHT22;5061;49.068;12.058;2024-03-02T01:21:45;5.70;99.90
10042;DHT22;5061;49.068;12.058;2024-03-02T01:25:06;5.70;99.90
10042;DHT22;5061;49.068;12.058;2024-03-02T01:28:29;5.70;99.90
10042;DHT22;5061;49.068;12.058;2024-03-02T01:31:49;5.70;99.90
10042;DHT22;5061;49.068;12.058;2024-03-02T01:35:11;5.70;99.90
10042;DHT22;5061;49.068;12.058;2024-03-02T01:38:32;5.80;99.90
10042;DHT22;5061;49.068;12.058;2024-03-02T01:41:54;5.70;99.90
10042;DHT22;5061;49.068;12.058;2024-03-02T01:45:15;5.70;99.90
10042;DHT22;5061;49.068;12.058;2024-03-02T01:48:35;5.70;99.90
10042;DHT22;5061;49.068;12.058;2024-03-02T01:51:56;5.70;99.90
10042;DHT22;5061;49.068;12.058;2024-03-02T01:55:17;5.70;99.90
10042;DHT22;5061;49.068;12.058;2024-03-02T01:58:37;5.70;99.90
10042;DHT22;5061;49.068;12.058;2024-03-02T02:01:58;5.70;99.90
10042;DHT22;5061;49.068;12.058;2024-03-02T02:05:19;5.80;99.90
10042;DHT22;5061;49.068;12.058;2024-03-02T02:08:39;5.80;99.90
10042;DHT22;5061;49.068;12.058;2024-03-02T02:12:01;5.70;99.90
10042;DHT22;5061;49.068;12.058;2024-03-02T02:15:23;5.80;99.90
10042;DHT22;5061;49.068;12.058;2024-03-02T02:18:44;5.80;99.90
10042;DHT22;5061;49.068;12.058;2024-03-02T02:22:05;5.80;99.90
10042;DHT22;5061;49.068;12.058;2024-03-02T02:25:25;5.70;99.90
10042;DHT22;5061;49.068;12.058;2024-03-02T02:28:46;5.80;99.90
10042;DHT22;5061;49.068;12.058;2024-03-02T02:32:07;5.80;99.90
10042;DHT22;5061;49.068;12.058;2024-03-02T02:35:28;5.80;99.90
10042;DHT22;5061;49.068;12.058;2024-03-02T02:38:49;5.80;99.90
10042;DHT22;5061;49.068;12.058;2024-03-02T02:42:10;5.80;99.90
10042;DHT22;5061;49.068;12.058;2024-03-02T02:45:31;5.80;99.90
10042;DHT22;5061;49.068;12.058;2024-03-02T02:48:51;5.70;99.90
10042;DHT22;5061;49.068;12.058;2024-03-02T02:52:13;5.80;99.90
10042;DHT22;5061;49.068;12.058;2024-03-02T02:55:34;5.80;99.90
10042;DHT22;5061;49.068;12.058;2024-03-02T02:58:54;5.80;99.90
10042;DHT22;5061;49.068;12.058;2024-03-02T03:02:15;5.70;99.90
10042;DHT22;5061;49.068;12.058;2024-03-02T03:05:35;5.80;99.90
10042;DHT22;5061;49.068;12.058;2024-03-02T03:08:56;5.70;99.90
10042;DHT22;5061;49.068;12.058;2024-03-02T03:12:17;5.70;99.90
10042;DHT22;5061;49.068;12.058;2024-03-02T03:15:38;5.70;99.90
10042;DHT22;5061;49.068;12.058;2024-03-02T03:18:59;5.80;99.90
10042;DHT22;5061;49.068;12.058;2024-03-02T03:22:19;5.80;99.90
10042;DHT22;5061;49.068;12.058;2024-03-02T03:25:40;5.70;99.90
10042;DHT22;5061;49.068;12.058;2024-03-02T03:29:01;5.80;99.90
10042;DHT22;5061;49.068;12.058;2024-03-02T03:32:22;5.70;99.90
10042;DHT22;5061;49.068;12.058;2024-03-02T03:35:43;5.80;99.90
10042;DHT22;5061;49.068;12.058;2024-03-02T03:39:04;5.70;99.90
10042;DHT22;5061;49.068;12.058;2024-03-02T03:42:27;5.70;99.90
10042;DHT22;5061;49.068;12.058;2024-03-02T03:45:47;5.80;99.90
10042;DHT22;5061;49.068;12.058;2024-03-02T03:49:08;5.70;99.90
10042;DHT22;5061;49.068;12.058;2024-03-02T03:52:28;5.80;99.90
10042;DHT22;5061;49.068;12.058;2024-03-02T03:55:49;5.70;99.90
10042;DHT22;5061;49.068;12.058;2024-03-02T03:59:09;5.70;99.90
10042;DHT22;5061;49.068;12.058;2024-03-02T04:02:30;5.80;99.90
10042;DHT22;5061;49.068;12.058;2024-03-02T04:05:51;5.80;99.90
10042;DHT22;5061;49.068;12.058;2024-03-02T04:09:11;5.80;99.90
10042;DHT22;5061;49.068;12.058;2024-03-02T04:12:32;5.80;99.90
10042;DHT22;5061;49.068;12.058;2024-03-02T04:15:53;5.80;99.90
10042;DHT22;5061;49.068;12.058;2024-03-02T04:19:14;5.80;99.90
10042;DHT22;5061;49.068;12.058;2024-03-02T04:22:35;5.80;99.90
10042;DHT22;5061;49.068;12.058;2024-03-02T04:25:56;5.80;99.90
10042;DHT22;5061;49.068;12.058;2024-03-02T04:29:16;5.80;99.90
10042;DHT22;5061;49.068;12.058;2024-03-02T04:32:37;5.80;99.90
10042;DHT22;5061;49.068;12.058;2024-03-02T04:35:57;5.80;99.90
10042;DHT22;5061;49.068;12.058;2024-03-02T04:39:18;5.80;99.90
10042;DHT22;5061;49.068;12.058;2024-03-02T04:42:39;5.80;99.90
10042;DHT22;5061;49.068;12.058;2024-03-02T04:46:00;5.80;99.90
10042;DHT22;5061;49.068;12.058;2024-03-02T04:49:20;5.80;99.90
10042;DHT22;5061;49.068;12.058;2024-03-02T04:52:41;5.90;99.90
10042;DHT22;5061;49.068;12.058;2024-03-02T04:56:02;5.80;99.90
10042;DHT22;5061;49.068;12.058;2024-03-02T04:59:54;5.80;99.90
10042;DHT22;5061;49.068;12.058;2024-03-02T05:03:15;5.80;99.90
10042;DHT22;5061;49.068;12.058;2024-03-02T05:06:36;5.90;99.90
10042;DHT22;5061;49.068;12.058;2024-03-02T05:09:56;5.90;99.90
10042;DHT22;5061;49.068;12.058;2024-03-02T05:13:17;5.90;99.90
10042;DHT22;5061;49.068;12.058;2024-03-02T05:16:38;5.90;99.90
10042;DHT22;5061;49.068;12.058;2024-03-02T05:20:05;5.90;99.90
10042;DHT22;5061;49.068;12.058;2024-03-02T05:23:26;5.90;99.90
10042;DHT22;5061;49.068;12.058;2024-03-02T05:26:47;5.90;99.90
10042;DHT22;5061;49.068;12.058;2024-03-02T05:30:08;5.90;99.90
10042;DHT22;5061;49.068;12.058;2024-03-02T05:33:29;5.90;99.90
10042;DHT22;5061;49.068;12.058;2024-03-02T05:36:51;5.90;99.90
10042;DHT22;5061;49.068;12.058;2024-03-02T05:40:12;5.90;99.90
10042;DHT22;5061;49.068;12.058;2024-03-02T05:43:33;5.90;99.90
10042;DHT22;5061;49.068;12.058;2024-03-02T05:46:54;5.90;99.90
10042;DHT22;5061;49.068;12.058;2024-03-02T05:50:14;5.90;99.90
10042;DHT22;5061;49.068;12.058;2024-03-02T05:53:35;6.00;99.90
10042;DHT22;5061;49.068;12.058;2024-03-02T05:56:58;6.00;99.90
10042;DHT22;5061;49.068;12.058;2024-03-02T06:00:36;6.00;99.90
10042;DHT22;5061;49.068;12.058;2024-03-02T06:03:57;6.00;99.90
10042;DHT22;5061;49.068;12.058;2024-03-02T06:07:19;6.10;99.90
10042;DHT22;5061;49.068;12.058;2024-03-02T06:10:39;6.00;99.90
10042;DHT22;5061;49.068;12.058;2024-03-02T06:14:00;6.00;99.90
10042;DHT22;5061;49.068;12.058;2024-03-02T06:17:21;6.00;99.90
10042;DHT22;5061;49.068;12.058;2024-03-02T06:20:41;6.00;99.90
10042;DHT22;5061;49.068;12.058;2024-03-02T06:24:03;6.10;99.90
10042;DHT22;5061;49.068;12.058;2024-03-02T06:27:23;6.10;99.90
10042;DHT22;5061;49.068;12.058;2024-03-02T06:30:44;6.10;99.90
10042;DHT22;5061;49.068;12.058;2024-03-02T06:34:05;6.10;99.90
10042;DHT22;5061;49.068;12.058;2024-03-02T06:37:26;6.10;99.90
10042;DHT22;5061;49.068;12.058;2024-03-02T06:40:46;6.20;99.90
10042;DHT22;5061;49.068;12.058;2024-03-02T06:44:07;6.20;99.90
10042;DHT22;5061;49.068;12.058;2024-03-02T06:47:27;6.20;99.90
10042;DHT22;5061;49.068;12.058;2024-03-02T06:50:49;6.20;99.90
10042;DHT22;5061;49.068;12.058;2024-03-02T06:54:10;6.20;99.90
10042;DHT22;5061;49.068;12.058;2024-03-02T06:57:30;6.20;99.90
10042;DHT22;5061;49.068;12.058;2024-03-02T07:00:51;6.20;99.90
10042;DHT22;5061;49.068;12.058;2024-03-02T07:04:13;6.30;99.90
10042;DHT22;5061;49.068;12.058;2024-03-02T07:07:34;6.30;99.90
10042;DHT22;5061;49.068;12.058;2024-03-02T07:10:55;6.30;99.90
10042;DHT22;5061;49.068;12.058;2024-03-02T07:14:16;6.30;99.90
10042;DHT22;5061;49.068;12.058;2024-03-02T07:17:37;6.30;99.90
10042;DHT22;5061;49.068;12.058;2024-03-02T07:20:58;6.30;99.90
10042;DHT22;5061;49.068;12.058;2024-03-02T07:24:21;6.40;99.90
10042;DHT22;5061;49.068;12.058;2024-03-02T07:27:41;6.40;99.90
10042;DHT22;5061;49.068;12.058;2024-03-02T07:31:04;6.40;99.90
10042;DHT22;5061;49.068;12.058;2024-03-02T07:34:25;6.50;99.90
10042;DHT22;5061;49.068;12.058;2024-03-02T07:37:46;6.40;99.90
10042;DHT22;5061;49.068;12.058;2024-03-02T07:41:07;6.50;99.90
10042;DHT22;5061;49.068;12.058;2024-03-02T07:44:28;6.50;99.90
10042;DHT22;5061;49.068;12.058;2024-03-02T07:47:49;6.50;99.90
10042;DHT22;5061;49.068;12.058;2024-03-02T07:51:10;6.50;99.90
10042;DHT22;5061;49.068;12.058;2024-03-02T07:54:30;6.50;99.90
10042;DHT22;5061;49.068;12.058;2024-03-02T07:57:51;6.50;99.90
10042;DHT22;5061;49.068;12.058;2024-03-02T08:01:12;6.40;99.90
10042;DHT22;5061;49.068;12.058;2024-03-02T08:04:32;6.40;99.90
10042;DHT22;5061;49.068;12.058;2024-03-02T08:07:53;6.40;99.90
10042;DHT22;5061;49.068;12.058;2024-03-02T08:11:14;6.40;99.90
10042;DHT22;5061;49.068;12.058;2024-03-02T08:14:34;6.50;99.90
10042;DHT22;5061;49.068;12.058;2024-03-02T08:17:55;6.50;99.90
10042;DHT22;5061;49.068;12.058;2024-03-02T08:21:16;6.50;99.90
10042;DHT22;5061;49.068;12.058;2024-03-02T08:24:37;6.50;99.90
10042;DHT22;5061;49.068;12.058;2024-03-02T08:27:58;6.50;99.90
10042;DHT22;5061;49.068;12.058;2024-03-02T08:31:18;6.50;99.90
10042;DHT22;5061;49.068;12.058;2024-03-02T08:34:39;6.50;99.90
10042;DHT22;5061;49.068;12.058;2024-03-02T08:37:59;6.50;99.90
10042;DHT22;5061;49.068;12.058;2024-03-02T08:41:21;6.60;99.90
10042;DHT22;5061;49.068;12.058;2024-03-02T08:44:42;6.60;99.90
10042;DHT22;5061;49.068;12.058;2024-03-02T08:48:04;6.60;99.90
10042;DHT22;5061;49.068;12.058;2024-03-02T08:51:24;6.70;99.90
10042;DHT22;5061;49.068;12.058;2024-03-02T08:54:45;6.70;99.90
10042;DHT22;5061;49.068;12.058;2024-03-02T08:58:05;6.70;99.90
10042;DHT22;5061;49.068;12.058;2024-03-02T09:01:26;6.70;99.90
10042;DHT22;5061;49.068;12.058;2024-03-02T09:04:47;6.70;99.90
10042;DHT22;5061;49.068;12.058;2024-03-02T09:08:08;6.80;99.90
10042;DHT22;5061;49.068;12.058;2024-03-02T09:11:28;6.90;99.90
10042;DHT22;5061;49.068;12.058;2024-03-02T09:14:49;7.00;99.90
10042;DHT22;5061;49.068;12.058;2024-03-02T09:18:10;7.10;99.90
10042;DHT22;5061;49.068;12.058;2024-03-02T09:21:31;7.20;99.90
10042;DHT22;5061;49.068;12.058;2024-03-02T09:24:51;7.30;99.90
10042;DHT22;5061;49.068;12.058;2024-03-02T09:28:12;7.40;99.90
10042;DHT22;5061;49.068;12.058;2024-03-02T09:31:32;7.50;99.90
10042;DHT22;5061;49.068;12.058;2024-03-02T09:34:53;7.50;99.90
10042;DHT22;5061;49.068;12.058;2024-03-02T09:38:16;7.60;99.90
10042;DHT22;5061;49.068;12.058;2024-03-02T09:41:37;7.60;99.90
10042;DHT22;5061;49.068;12.058;2024-03-02T09:44:59;7.70;99.90
10042;DHT22;5061;49.068;12.058;2024-03-02T09:48:19;7.70;99.90
10042;DHT22;5061;49.068;12.058;2024-03-02T09:51:41;7.70;99.90
10042;DHT22;5061;49.068;12.058;2024-03-02T09:55:06;7.70;99.90
10042;DHT22;5061;49.068;12.058;2024-03-02T09:58:27;7.80;99.90
10042;DHT22;5061;49.068;12.058;2024-03-02T10:05:26;8.00;99.90
10042;DHT22;5061;49.068;12.058;2024-03-02T10:08:50;8.10;99.90
10042;DHT22;5061;49.068;12.058;2024-03-02T10:12:13;8.10;99.90
10042;DHT22;5061;49.068;12.058;2024-03-02T10:15:35;8.10;99.90
10042;DHT22;5061;49.068;12.058;2024-03-02T10:18:55;8.10;99.90
10042;DHT22;5061;49.068;12.058;2024-03-02T10:22:16;8.20;99.90
10042;DHT22;5061;49.068;12.058;2024-03-02T10:25:37;8.20;99.90
10042;DHT22;5061;49.068;12.058;2024-03-02T10:28:57;8.20;99.90
10042;DHT22;5061;49.068;12.058;2024-03-02T10:32:22;8.30;99.90
10042;DHT22;5061;49.068;12.058;2024-03-02T10:35:44;8.40;99.90
10042;DHT22;5061;49.068;12.058;2024-03-02T10:39:05;8.60;99.90
10042;DHT22;5061;49.068;12.058;2024-03-02T10:42:26;8.70;99.90
10042;DHT22;5061;49.068;12.058;2024-03-02T10:45:49;8.90;99.90
10042;DHT22;5061;49.068;12.058;2024-03-02T10:49:10;9.10;99.90
10042;DHT22;5061;49.068;12.058;2024-03-02T10:52:31;9.20;99.90
10042;DHT22;5061;49.068;12.058;2024-03-02T10:55:57;9.20;99.90
10042;DHT22;5061;49.068;12.058;2024-03-02T10:59:53;9.30;99.90
10042;DHT22;5061;49.068;12.058;2024-03-02T11:03:17;9.30;99.90
10042;DHT22;5061;49.068;12.058;2024-03-02T11:06:41;9.20;99.90
10042;DHT22;5061;49.068;12.058;2024-03-02T11:10:05;9.30;99.90
10042;DHT22;5061;49.068;12.058;2024-03-02T11:13:31;9.20;99.90
10042;DHT22;5061;49.068;12.058;2024-03-02T11:16:52;9.20;99.90
10042;DHT22;5061;49.068;12.058;2024-03-02T11:20:14;9.20;99.90
10042;DHT22;5061;49.068;12.058;2024-03-02T11:23:35;9.20;99.90
10042;DHT22;5061;49.068;12.058;2024-03-02T11:26:56;9.20;99.90
10042;DHT22;5061;49.068;12.058;2024-03-02T11:33:53;9.30;99.90
10042;DHT22;5061;49.068;12.058;2024-03-02T11:37:15;9.40;99.90
10042;DHT22;5061;49.068;12.058;2024-03-02T11:40:36;9.50;99.90
10042;DHT22;5061;49.068;12.058;2024-03-02T11:43:56;9.50;99.90
10042;DHT22;5061;49.068;12.058;2024-03-02T11:47:17;9.50;99.90
10042;DHT22;5061;49.068;12.058;2024-03-02T11:50:42;9.50;99.90
10042;DHT22;5061;49.068;12.058;2024-03-02T11:54:03;9.50;99.90
10042;DHT22;5061;49.068;12.058;2024-03-02T11:57:24;9.50;99.90
10042;DHT22;5061;49.068;12.058;2024-03-02T12:00:46;9.60;99.90
10042;DHT22;5061;49.068;12.058;2024-03-02T12:04:08;9.70;99.90
10042;DHT22;5061;49.068;12.058;2024-03-02T12:07:28;9.70;99.90
10042;DHT22;5061;49.068;12.058;2024-03-02T12:11:00;9.80;99.90
10042;DHT22;5061;49.068;12.058;2024-03-02T12:14:21;9.80;99.90
10042;DHT22;5061;49.068;12.058;2024-03-02T12:17:42;9.80;99.90
10042;DHT22;5061;49.068;12.058;2024-03-02T12:21:03;9.80;99.90
10042;DHT22;5061;49.068;12.058;2024-03-02T12:24:27;9.90;99.90
10042;DHT22;5061;49.068;12.058;2024-03-02T12:27:49;9.90;99.90
10042;DHT22;5061;49.068;12.058;2024-03-02T12:31:11;9.90;99.90
10042;DHT22;5061;49.068;12.058;2024-03-02T12:34:31;9.90;99.90
10042;DHT22;5061;49.068;12.058;2024-03-02T12:37:53;10.00;99.90
10042;DHT22;5061;49.068;12.058;2024-03-02T12:41:17;10.30;99.90
10042;DHT22;5061;49.068;12.058;2024-03-02T12:44:38;10.40;99.90
10042;DHT22;5061;49.068;12.058;2024-03-02T12:48:00;10.50;99.90
10042;DHT22;5061;49.068;12.058;2024-03-02T12:51:22;10.50;99.90
10042;DHT22;5061;49.068;12.058;2024-03-02T12:54:42;10.50;99.90
10042;DHT22;5061;49.068;12.058;2024-03-02T12:58:03;10.50;99.90
10042;DHT22;5061;49.068;12.058;2024-03-02T13:01:24;10.50;99.90
10042;DHT22;5061;49.068;12.058;2024-03-02T13:04:50;10.50;99.90
10042;DHT22;5061;49.068;12.058;2024-03-02T13:08:12;10.50;99.90
10042;DHT22;5061;49.068;12.058;2024-03-02T13:11:32;10.50;99.90
10042;DHT22;5061;49.068;12.058;2024-03-02T13:14:53;10.50;99.90
10042;DHT22;5061;49.068;12.058;2024-03-02T13:18:14;10.60;99.90
10042;DHT22;5061;49.068;12.058;2024-03-02T13:21:35;10.90;99.90
10042;DHT22;5061;49.068;12.058;2024-03-02T13:24:56;11.10;99.90
10042;DHT22;5061;49.068;12.058;2024-03-02T13:28:17;11.40;99.90
10042;DHT22;5061;49.068;12.058;2024-03-02T13:31:38;11.50;99.90
10042;DHT22;5061;49.068;12.058;2024-03-02T13:34:58;11.70;99.90
10042;DHT22;5061;49.068;12.058;2024-03-02T13:38:20;11.90;99.90
10042;DHT22;5061;49.068;12.058;2024-03-02T13:41:40;12.10;99.90
10042;DHT22;5061;49.068;12.058;2024-03-02T13:45:01;12.30;99.90
10042;DHT22;5061;49.068;12.058;2024-03-02T13:48:22;12.40;99.90
10042;DHT22;5061;49.068;12.058;2024-03-02T13:51:42;12.60;99.90
10042;DHT22;5061;49.068;12.058;2024-03-02T13:55:03;12.70;99.90
10042;DHT22;5061;49.068;12.058;2024-03-02T13:58:24;12.70;99.90
10042;DHT22;5061;49.068;12.058;2024-03-02T14:01:45;12.70;99.90
10042;DHT22;5061;49.068;12.058;2024-03-02T14:05:06;12.70;99.90
10042;DHT22;5061;49.068;12.058;2024-03-02T14:08:29;12.60;99.90
10042;DHT22;5061;49.068;12.058;2024-03-02T14:11:50;12.50;99.90
10042;DHT22;5061;49.068;12.058;2024-03-02T14:15:12;12.50;99.90
10042;DHT22;5061;49.068;12.058;2024-03-02T14:18:32;12.30;99.90
10042;DHT22;5061;49.068;12.058;2024-03-02T14:21:53;12.20;99.90
10042;DHT22;5061;49.068;12.058;2024-03-02T14:25:13;12.00;99.90
10042;DHT22;5061;49.068;12.058;2024-03-02T14:28:34;11.80;99.90
10042;DHT22;5061;49.068;12.058;2024-03-02T14:31:55;11.50;99.90
10042;DHT22;5061;49.068;12.058;2024-03-02T14:35:15;11.40;99.90
10042;DHT22;5061;49.068;12.058;2024-03-02T14:38:37;11.20;99.90
10042;DHT22;5061;49.068;12.058;2024-03-02T14:41:57;11.20;99.90
10042;DHT22;5061;49.068;12.058;2024-03-02T14:45:18;11.10;99.90
10042;DHT22;5061;49.068;12.058;2024-03-02T14:48:39;11.10;99.90
10042;DHT22;5061;49.068;12.058;2024-03-02T14:52:00;11.20;99.90
10042;DHT22;5061;49.068;12.058;2024-03-02T14:55:20;11.30;99.90
10042;DHT22;5061;49.068;12.058;2024-03-02T14:58:41;11.50;99.90
10042;DHT22;5061;49.068;12.058;2024-03-02T15:02:01;11.70;99.90
10042;DHT22;5061;49.068;12.058;2024-03-02T15:05:22;11.90;99.90
10042;DHT22;5061;49.068;12.058;2024-03-02T15:08:46;12.10;99.90
10042;DHT22;5061;49.068;12.058;2024-03-02T15:12:07;12.30;99.90
10042;DHT22;5061;49.068;12.058;2024-03-02T15:15:32;12.40;99.90
10042;DHT22;5061;49.068;12.058;2024-03-02T15:18:54;12.50;99.90
10042;DHT22;5061;49.068;12.058;2024-03-02T15:22:14;12.50;99.90
10042;DHT22;5061;49.068;12.058;2024-03-02T15:25:35;12.50;99.90
10042;DHT22;5061;49.068;12.058;2024-03-02T15:28:55;12.40;99.90
10042;DHT22;5061;49.068;12.058;2024-03-02T15:32:18;12.40;99.90
10042;DHT22;5061;49.068;12.058;2024-03-02T15:35:39;12.30;99.90
10042;DHT22;5061;49.068;12.058;2024-03-02T15:38:59;12.30;99.90
10042;DHT22;5061;49.068;12.058;2024-03-02T15:42:21;12.20;99.90
10042;DHT22;5061;49.068;12.058;2024-03-02T15:45:43;12.10;99.90
10042;DHT22;5061;49.068;12.058;2024-03-02T15:49:04;12.00;99.90
10042;DHT22;5061;49.068;12.058;2024-03-02T15:52:26;12.00;99.90
10042;DHT22;5061;49.068;12.058;2024-03-02T15:55:47;11.90;99.90
10042;DHT22;5061;49.068;12.058;2024-03-02T15:59:08;11.80;99.90
10042;DHT22;5061;49.068;12.058;2024-03-02T16:02:29;11.70;99.90
10042;DHT22;5061;49.068;12.058;2024-03-02T16:05:50;11.60;99.90
10042;DHT22;5061;49.068;12.058;2024-03-02T16:09:10;11.50;99.90
10042;DHT22;5061;49.068;12.058;2024-03-02T16:12:31;11.40;99.90
10042;DHT22;5061;49.068;12.058;2024-03-02T16:15:52;11.30;99.90
10042;DHT22;5061;49.068;12.058;2024-03-02T16:19:12;11.10;99.90
10042;DHT22;5061;49.068;12.058;2024-03-02T16:22:33;10.90;99.90
10042;DHT22;5061;49.068;12.058;2024-03-02T16:25:54;10.80;99.90
10042;DHT22;5061;49.068;12.058;2024-03-02T16:29:14;10.70;99.90
10042;DHT22;5061;49.068;12.058;2024-03-02T16:32:35;10.50;99.90
10042;DHT22;5061;49.068;12.058;2024-03-02T16:35:55;10.40;99.90
10042;DHT22;5061;49.068;12.058;2024-03-02T16:39:16;10.30;99.90
10042;DHT22;5061;49.068;12.058;2024-03-02T16:42:37;10.10;99.90
10042;DHT22;5061;49.068;12.058;2024-03-02T16:45:57;10.00;99.90
10042;DHT22;5061;49.068;12.058;2024-03-02T16:49:18;9.80;99.90
10042;DHT22;5061;49.068;12.058;2024-03-02T16:52:38;9.70;99.90
10042;DHT22;5061;49.068;12.058;2024-03-02T16:56:00;9.60;99.90
10042;DHT22;5061;49.068;12.058;2024-03-02T16:59:20;9.50;99.90
10042;DHT22;5061;49.068;12.058;2024-03-02T17:02:41;9.30;99.90
10042;DHT22;5061;49.068;12.058;2024-03-02T17:06:02;9.20;99.90
10042;DHT22;5061;49.068;12.058;2024-03-02T17:09:22;9.20;99.90
10042;DHT22;5061;49.068;12.058;2024-03-02T17:12:43;9.00;99.90
10042;DHT22;5061;49.068;12.058;2024-03-02T17:16:04;8.90;99.90
10042;DHT22;5061;49.068;12.058;2024-03-02T17:19:25;8.90;99.90
10042;DHT22;5061;49.068;12.058;2024-03-02T17:22:45;8.80;99.90
10042;DHT22;5061;49.068;12.058;2024-03-02T17:26:06;8.70;99.90
10042;DHT22;5061;49.068;12.058;2024-03-02T17:29:26;8.70;99.90
10042;DHT22;5061;49.068;12.058;2024-03-02T17:32:47;8.70;99.90
10042;DHT22;5061;49.068;12.058;2024-03-02T17:36:07;8.60;99.90
10042;DHT22;5061;49.068;12.058;2024-03-02T17:39:28;8.50;99.90
10042;DHT22;5061;49.068;12.058;2024-03-02T17:42:49;8.40;99.90
10042;DHT22;5061;49.068;12.058;2024-03-02T17:46:10;8.30;99.90
10042;DHT22;5061;49.068;12.058;2024-03-02T17:49:30;8.20;99.90
10042;DHT22;5061;49.068;12.058;2024-03-02T17:52:51;8.20;99.90
10042;DHT22;5061;49.068;12.058;2024-03-02T17:56:12;8.20;99.90
10042;DHT22;5061;49.068;12.058;2024-03-02T17:59:32;8.10;99.90
10042;DHT22;5061;49.068;12.058;2024-03-02T18:02:53;8.10;99.90
10042;DHT22;5061;49.068;12.058;2024-03-02T18:06:14;8.10;99.90
10042;DHT22;5061;49.068;12.058;2024-03-02T18:09:34;8.00;99.90
10042;DHT22;5061;49.068;12.058;2024-03-02T18:12:56;8.00;99.90
10042;DHT22;5061;49.068;12.058;2024-03-02T18:16:17;7.90;99.90
10042;DHT22;5061;49.068;12.058;2024-03-02T18:19:38;7.90;99.90
10042;DHT22;5061;49.068;12.058;2024-03-02T18:22:58;7.90;99.90
10042;DHT22;5061;49.068;12.058;2024-03-02T18:26:20;7.80;99.90
10042;DHT22;5061;49.068;12.058;2024-03-02T18:29:40;7.80;99.90
10042;DHT22;5061;49.068;12.058;2024-03-02T18:33:01;7.80;99.90
10042;DHT22;5061;49.068;12.058;2024-03-02T18:36:21;7.80;99.90
10042;DHT22;5061;49.068;12.058;2024-03-02T18:39:42;7.80;99.90
10042;DHT22;5061;49.068;12.058;2024-03-02T18:43:04;7.70;99.90
10042;DHT22;5061;49.068;12.058;2024-03-02T18:46:24;7.70;99.90
10042;DHT22;5061;49.068;12.058;2024-03-02T18:49:45;7.60;99.90
10042;DHT22;5061;49.068;12.058;2024-03-02T18:53:06;7.70;99.90
10042;DHT22;5061;49.068;12.058;2024-03-02T18:56:26;7.60;99.90
10042;DHT22;5061;49.068;12.058;2024-03-02T18:59:47;7.50;99.90
10042;DHT22;5061;49.068;12.058;2024-03-02T19:03:07;7.50;99.90
10042;DHT22;5061;49.068;12.058;2024-03-02T19:06:28;7.50;99.90
10042;DHT22;5061;49.068;12.058;2024-03-02T19:09:48;7.50;99.90
10042;DHT22;5061;49.068;12.058;2024-03-02T19:13:09;7.40;99.90
10042;DHT22;5061;49.068;12.058;2024-03-02T19:16:30;7.40;99.90
10042;DHT22;5061;49.068;12.058;2024-03-02T19:19:50;7.40;99.90
10042;DHT22;5061;49.068;12.058;2024-03-02T19:23:11;7.40;99.90
10042;DHT22;5061;49.068;12.058;2024-03-02T19:26:32;7.30;99.90
10042;DHT22;5061;49.068;12.058;2024-03-02T19:29:52;7.30;99.90
10042;DHT22;5061;49.068;12.058;2024-03-02T19:33:13;7.20;99.90
10042;DHT22;5061;49.068;12.058;2024-03-02T19:36:34;7.20;99.90
10042;DHT22;5061;49.068;12.058;2024-03-02T19:39:55;7.20;99.90
10042;DHT22;5061;49.068;12.058;2024-03-02T19:43:16;7.20;99.90
10042;DHT22;5061;49.068;12.058;2024-03-02T19:46:37;7.10;99.90
10042;DHT22;5061;49.068;12.058;2024-03-02T19:49:59;7.10;99.90
10042;DHT22;5061;49.068;12.058;2024-03-02T19:53:19;7.10;99.90
10042;DHT22;5061;49.068;12.058;2024-03-02T19:56:40;7.00;99.90
10042;DHT22;5061;49.068;12.058;2024-03-02T20:00:00;7.00;99.90
10042;DHT22;5061;49.068;12.058;2024-03-02T20:03:21;7.00;99.90
10042;DHT22;5061;49.068;12.058;2024-03-02T20:06:43;7.00;99.90
10042;DHT22;5061;49.068;12.058;2024-03-02T20:10:03;7.00;99.90
10042;DHT22;5061;49.068;12.058;2024-03-02T20:13:26;7.00;99.90
10042;DHT22;5061;49.068;12.058;2024-03-02T20:16:47;6.90;99.90
10042;DHT22;5061;49.068;12.058;2024-03-02T20:20:08;6.80;99.90
10042;DHT22;5061;49.068;12.058;2024-03-02T20:23:31;6.70;99.90
10042;DHT22;5061;49.068;12.058;2024-03-02T20:26:52;6.70;99.90
10042;DHT22;5061;49.068;12.058;2024-03-02T20:30:13;6.60;99.90
10042;DHT22;5061;49.068;12.058;2024-03-02T20:33:33;6.50;99.90
10042;DHT22;5061;49.068;12.058;2024-03-02T20:36:54;6.50;99.90
10042;DHT22;5061;49.068;12.058;2024-03-02T20:40:16;6.40;99.90
10042;DHT22;5061;49.068;12.058;2024-03-02T20:43:39;6.40;99.90
10042;DHT22;5061;49.068;12.058;2024-03-02T20:46:59;6.30;99.90
10042;DHT22;5061;49.068;12.058;2024-03-02T20:50:20;6.30;99.90
10042;DHT22;5061;49.068;12.058;2024-03-02T20:53:41;6.30;99.90
10042;DHT22;5061;49.068;12.058;2024-03-02T20:57:02;6.20;99.90
10042;DHT22;5061;49.068;12.058;2024-03-02T21:00:26;6.20;99.90
10042;DHT22;5061;49.068;12.058;2024-03-02T21:03:46;6.20;99.90
10042;DHT22;5061;49.068;12.058;2024-03-02T21:07:07;6.20;99.90
10042;DHT22;5061;49.068;12.058;2024-03-02T21:10:28;6.10;99.90
10042;DHT22;5061;49.068;12.058;2024-03-02T21:13:49;6.10;99.90
10042;DHT22;5061;49.068;12.058;2024-03-02T21:17:09;6.00;99.90
10042;DHT22;5061;49.068;12.058;2024-03-02T21:20:30;6.00;99.90
10042;DHT22;5061;49.068;12.058;2024-03-02T21:23:50;6.00;99.90
10042;DHT22;5061;49.068;12.058;2024-03-02T21:27:11;5.90;99.90
10042;DHT22;5061;49.068;12.058;2024-03-02T21:30:34;5.90;99.90
10042;DHT22;5061;49.068;12.058;2024-03-02T21:33:55;5.90;99.90